createdAt,value
2018-06-11T00:01:55.021Z,96.10
2018-06-11T00:04:24.265Z,95.80
2018-06-11T00:06:53.496Z,95.90
2018-06-11T00:09:22.999Z,95.00
2018-06-11T00:11:52.300Z,94.50
2018-06-11T00:14:21.521Z,95.00
2018-06-11T00:16:50.785Z,95.40
2018-06-11T00:19:20.065Z,95.80
2018-06-11T00:21:49.372Z,96.10
2018-06-11T00:24:18.720Z,96.30
2018-06-11T00:26:48.272Z,96.70
2018-06-11T00:29:17.504Z,96.50
2018-06-11T00:31:46.798Z,96.60
2018-06-11T00:34:16.096Z,96.40
2018-06-11T00:36:45.329Z,96.40
2018-06-11T00:39:14.572Z,96.30
2018-06-11T00:41:43.829Z,96.50
2018-06-11T00:44:13.072Z,96.60
2018-06-11T00:46:42.305Z,96.00
2018-06-11T00:49:11.500Z,96.30
2018-06-11T00:51:40.791Z,96.60
2018-06-11T00:54:10.000Z,95.80
2018-06-11T00:56:39.270Z,95.30
2018-06-11T00:59:08.512Z,95.20
2018-06-11T01:01:37.788Z,96.40
2018-06-11T01:04:07.020Z,96.70
2018-06-11T01:06:36.337Z,96.60
2018-06-11T01:09:07.608Z,97.00
2018-06-11T01:11:36.920Z,97.30
2018-06-11T01:14:06.140Z,97.50
2018-06-11T01:16:35.344Z,97.50
2018-06-11T01:19:04.544Z,97.80
2018-06-11T01:21:33.804Z,98.60
2018-06-11T01:24:03.029Z,98.50
2018-06-11T01:26:32.237Z,98.70
2018-06-11T01:29:01.459Z,98.80
2018-06-11T01:31:31.109Z,98.50
2018-06-11T01:34:00.358Z,98.60
2018-06-11T01:36:29.603Z,98.20
2018-06-11T01:38:58.961Z,98.60
2018-06-11T01:41:28.205Z,99.00
2018-06-11T01:43:57.449Z,98.70
2018-06-11T01:46:26.657Z,97.60
2018-06-11T01:48:55.929Z,98.10
2018-06-11T01:51:25.229Z,98.70
2018-06-11T01:53:54.460Z,98.60
2018-06-11T01:56:23.729Z,98.40
2018-06-11T01:58:52.959Z,98.10
2018-06-11T02:01:22.232Z,97.60
2018-06-11T02:03:51.475Z,97.60
2018-06-11T02:06:20.835Z,97.40
2018-06-11T02:08:50.052Z,97.60
2018-06-11T02:11:21.476Z,98.50
2018-06-11T02:13:50.700Z,98.70
2018-06-11T02:16:19.955Z,98.90
2018-06-11T02:18:49.176Z,99.10
2018-06-11T02:21:18.444Z,99.20
2018-06-11T02:23:47.684Z,99.20
2018-06-11T02:26:16.873Z,99.20
2018-06-11T02:28:46.132Z,99.20
2018-06-11T02:31:15.465Z,99.10
2018-06-11T02:33:44.745Z,99.10
2018-06-11T02:36:14.005Z,98.90
2018-06-11T02:38:43.228Z,99.10
2018-06-11T02:41:12.567Z,99.00
2018-06-11T02:43:41.848Z,99.10
2018-06-11T02:46:11.081Z,99.30
2018-06-11T02:48:40.300Z,99.20
2018-06-11T02:51:09.539Z,99.00
2018-06-11T02:53:38.768Z,99.10
2018-06-11T02:56:07.968Z,98.80
2018-06-11T02:58:37.183Z,98.50
2018-06-11T03:01:06.468Z,98.70
2018-06-11T03:03:35.688Z,98.50
2018-06-11T03:06:04.991Z,98.50
2018-06-11T03:08:34.285Z,98.50
2018-06-11T03:11:03.587Z,98.40
2018-06-11T03:13:32.833Z,98.60
2018-06-11T03:16:02.102Z,98.40
2018-06-11T03:23:28.737Z,97.80
2018-06-11T03:25:57.959Z,97.30
2018-06-11T03:28:27.237Z,97.70
2018-06-11T03:30:56.537Z,97.60
2018-06-11T03:33:25.756Z,97.60
2018-06-11T03:35:55.000Z,98.00
2018-06-11T03:38:24.251Z,98.00
2018-06-11T03:40:53.600Z,98.30
2018-06-11T03:43:22.832Z,98.40
2018-06-11T03:45:52.056Z,98.50
2018-06-11T03:48:21.327Z,98.60
2018-06-11T03:50:50.599Z,98.60
2018-06-11T03:53:19.828Z,98.30
2018-06-11T03:55:49.050Z,98.30
2018-06-11T03:58:18.292Z,97.90
2018-06-11T04:00:49.615Z,97.30
2018-06-11T04:03:18.825Z,97.10
2018-06-11T04:05:48.067Z,96.80
2018-06-11T04:08:17.272Z,96.80
2018-06-11T04:10:46.617Z,97.20
2018-06-11T04:13:15.866Z,97.70
2018-06-11T04:15:45.069Z,97.50
2018-06-11T04:18:14.263Z,97.00
2018-06-11T04:20:43.644Z,97.30
2018-06-11T04:23:12.868Z,96.90
2018-06-11T04:25:42.068Z,96.90
2018-06-11T04:28:11.644Z,97.10
2018-06-11T04:30:41.033Z,97.20
2018-06-11T04:33:10.241Z,97.40
2018-06-11T04:35:39.463Z,97.80
2018-06-11T04:38:08.670Z,97.60
2018-06-11T04:40:37.960Z,97.70
2018-06-11T04:43:07.236Z,98.00
2018-06-11T04:45:36.847Z,98.10
2018-06-11T04:48:06.208Z,97.10
2018-06-11T04:50:35.618Z,97.00
2018-06-11T04:53:04.923Z,96.70
2018-06-11T04:58:03.035Z,97.10
2018-06-11T05:00:32.409Z,96.50
2018-06-11T05:03:01.884Z,97.10
2018-06-11T05:05:31.212Z,97.00
2018-06-11T05:08:00.533Z,97.10
2018-06-11T05:10:29.951Z,97.30
2018-06-11T05:12:59.218Z,97.90
2018-06-11T05:15:28.590Z,98.10
2018-06-11T05:17:58.396Z,98.40
2018-06-11T05:20:28.845Z,98.70
2018-06-11T05:22:58.164Z,99.00
2018-06-11T05:25:27.638Z,99.10
2018-06-11T05:27:56.940Z,99.30
2018-06-11T05:30:26.244Z,99.90
2018-06-11T05:32:55.569Z,99.70
2018-06-11T05:35:24.924Z,99.50
2018-06-11T05:37:54.205Z,99.70
2018-06-11T05:40:23.641Z,99.90
2018-06-11T05:42:52.962Z,99.90
2018-06-11T05:45:22.365Z,99.90
2018-06-11T05:47:58.310Z,99.90
2018-06-11T05:50:27.767Z,99.90
2018-06-11T05:52:57.147Z,99.90
2018-06-11T05:55:26.575Z,99.90
2018-06-11T05:57:55.958Z,99.90
2018-06-11T06:00:26.235Z,99.90
2018-06-11T06:02:55.460Z,99.90
2018-06-11T06:07:53.537Z,99.90
2018-06-11T06:10:23.076Z,99.90
2018-06-11T06:15:21.176Z,99.90
2018-06-11T06:17:50.508Z,99.90
2018-06-11T06:20:19.852Z,99.90
2018-06-11T06:22:49.516Z,99.90
2018-06-11T06:25:18.819Z,99.90
2018-06-11T06:27:48.359Z,99.90
2018-06-11T06:30:17.784Z,99.90
2018-06-11T06:32:47.085Z,99.90
2018-06-11T06:35:16.468Z,99.90
2018-06-11T06:37:45.831Z,99.90
2018-06-11T06:40:15.164Z,99.90
2018-06-11T06:42:44.445Z,99.90
2018-06-11T06:45:13.738Z,99.90
2018-06-11T06:47:43.064Z,99.90
2018-06-11T06:50:12.430Z,99.90
2018-06-11T06:52:41.831Z,99.90
2018-06-11T06:55:11.177Z,99.90
2018-06-11T06:57:40.496Z,99.90
2018-06-11T07:00:09.987Z,99.90
2018-06-11T07:05:08.041Z,99.90
2018-06-11T07:07:37.368Z,99.90
2018-06-11T07:10:06.618Z,99.90
2018-06-11T07:12:35.881Z,99.90
2018-06-11T07:15:05.168Z,99.90
2018-06-11T07:17:34.492Z,99.90
2018-06-11T07:20:03.872Z,99.90
2018-06-11T07:22:33.116Z,99.90
2018-06-11T07:25:02.429Z,99.90
2018-06-11T07:27:31.732Z,99.90
2018-06-11T07:30:01.036Z,99.90
2018-06-11T07:32:30.399Z,99.90
2018-06-11T07:34:59.717Z,99.90
2018-06-11T07:37:29.037Z,99.90
2018-06-11T07:39:58.375Z,99.90
2018-06-11T07:42:27.743Z,99.90
2018-06-11T07:44:57.046Z,99.90
2018-06-11T07:47:26.391Z,99.90
2018-06-11T07:52:24.483Z,99.90
2018-06-11T07:54:53.815Z,99.90
2018-06-11T07:57:23.188Z,99.90
2018-06-11T07:59:52.946Z,99.90
2018-06-11T08:02:22.609Z,99.90
2018-06-11T08:04:52.111Z,99.90
2018-06-11T08:07:21.495Z,99.90
2018-06-11T08:09:51.084Z,99.90
2018-06-11T08:12:20.600Z,99.90
2018-06-11T08:14:49.914Z,99.90
2018-06-11T08:17:19.287Z,99.90
2018-06-11T08:19:48.525Z,99.90
2018-06-11T08:22:17.926Z,99.90
2018-06-11T08:24:47.229Z,99.90
2018-06-11T08:27:16.518Z,99.90
2018-06-11T08:29:45.994Z,99.90
2018-06-11T08:32:15.674Z,99.90
2018-06-11T08:34:44.967Z,99.90
2018-06-11T08:37:14.343Z,99.90
2018-06-11T08:39:43.608Z,99.90
2018-06-11T08:42:12.968Z,99.90
2018-06-11T08:44:42.281Z,99.90
2018-06-11T08:47:12.121Z,99.90
2018-06-11T08:49:42.949Z,99.90
2018-06-11T08:52:12.288Z,99.90
2018-06-11T08:54:41.688Z,99.90
2018-06-11T08:57:10.988Z,99.40
2018-06-11T08:59:40.392Z,99.00
2018-06-11T09:02:09.832Z,98.50
2018-06-11T09:04:39.244Z,97.10
2018-06-11T09:07:08.582Z,97.40
2018-06-11T09:09:37.993Z,95.40
2018-06-11T09:13:10.382Z,95.10
2018-06-11T09:15:39.797Z,95.70
2018-06-11T09:18:09.248Z,96.30
2018-06-11T09:20:38.636Z,95.60
2018-06-11T09:23:07.997Z,96.10
2018-06-11T09:25:37.308Z,96.60
2018-06-11T09:28:06.592Z,94.10
2018-06-11T09:30:36.321Z,94.30
2018-06-11T09:33:05.697Z,94.00
2018-06-11T09:35:35.456Z,92.00
2018-06-11T09:38:04.920Z,93.70
2018-06-11T09:40:34.587Z,93.90
2018-06-11T09:43:04.154Z,92.40
2018-06-11T09:45:33.481Z,92.00
2018-06-11T09:48:02.830Z,91.60
2018-06-11T09:50:32.317Z,91.40
2018-06-11T09:53:01.643Z,92.70
2018-06-11T09:55:31.008Z,90.50
2018-06-11T09:58:00.385Z,90.40
2018-06-11T10:00:33.116Z,90.40
2018-06-11T10:03:02.497Z,88.80
2018-06-11T10:05:31.783Z,90.80
2018-06-11T10:08:01.489Z,90.70
2018-06-11T10:10:30.897Z,89.20
2018-06-11T10:13:00.224Z,90.30
2018-06-11T10:15:29.516Z,90.50
2018-06-11T10:17:58.839Z,91.20
2018-06-11T10:20:28.236Z,91.20
2018-06-11T10:22:57.644Z,90.40
2018-06-11T10:25:27.030Z,89.00
2018-06-11T10:27:56.532Z,88.60
2018-06-11T10:30:25.996Z,91.30
2018-06-11T10:32:55.263Z,90.00
2018-06-11T10:35:24.555Z,90.50
2018-06-11T10:37:53.904Z,84.40
2018-06-11T10:40:23.513Z,86.60
2018-06-11T10:42:52.813Z,82.70
2018-06-11T10:45:22.312Z,85.40
2018-06-11T10:47:51.589Z,88.00
2018-06-11T10:50:20.953Z,84.00
2018-06-11T10:52:50.288Z,82.10
2018-06-11T10:55:19.550Z,78.70
2018-06-11T10:57:48.924Z,80.90
2018-06-11T11:00:18.272Z,87.40
2018-06-11T11:02:47.596Z,81.30
2018-06-11T11:05:16.947Z,80.00
2018-06-11T11:07:46.185Z,84.80
2018-06-11T11:10:15.586Z,80.80
2018-06-11T11:12:44.915Z,82.80
2018-06-11T11:15:14.226Z,84.90
2018-06-11T11:17:43.552Z,83.90
2018-06-11T11:20:12.861Z,85.60
2018-06-11T11:22:42.207Z,85.70
2018-06-11T11:25:11.553Z,86.60
2018-06-11T11:27:41.118Z,85.80
2018-06-11T11:30:10.549Z,89.50
2018-06-11T11:32:39.862Z,90.70
2018-06-11T11:35:09.401Z,86.90
2018-06-11T11:37:38.767Z,85.40
2018-06-11T11:40:08.134Z,90.40
2018-06-11T11:42:37.477Z,90.50
2018-06-11T11:45:07.273Z,91.20
2018-06-11T11:47:37.221Z,91.00
2018-06-11T11:50:07.863Z,88.40
2018-06-11T11:52:37.280Z,88.80
2018-06-11T11:55:06.675Z,88.80
2018-06-11T11:57:35.975Z,87.30
2018-06-11T12:00:05.512Z,86.10
2018-06-11T12:02:34.844Z,88.30
2018-06-11T12:05:04.294Z,86.20
2018-06-11T12:07:33.917Z,84.30
2018-06-11T12:10:03.317Z,82.50
2018-06-11T12:12:32.703Z,82.20
2018-06-11T12:15:02.703Z,83.50
2018-06-11T12:17:32.220Z,89.90
2018-06-11T12:21:04.619Z,85.90
2018-06-11T12:23:33.795Z,87.00
2018-06-11T12:26:03.009Z,79.30
2018-06-11T12:28:32.201Z,77.50
2018-06-11T12:31:01.461Z,83.10
2018-06-11T12:33:30.637Z,82.10
2018-06-11T12:35:59.816Z,71.40
2018-06-11T12:38:28.957Z,80.60
2018-06-11T12:40:58.230Z,77.80
2018-06-11T12:43:27.484Z,81.70
2018-06-11T12:45:56.661Z,82.10
2018-06-11T12:48:25.806Z,82.70
2018-06-11T12:50:55.120Z,85.10
2018-06-11T12:53:24.275Z,86.50
2018-06-11T12:55:53.677Z,90.00
2018-06-11T12:58:22.925Z,90.20
2018-06-11T13:00:52.252Z,90.40
2018-06-11T13:03:21.546Z,90.70
2018-06-11T13:05:50.888Z,91.20
2018-06-11T13:08:20.208Z,90.20
2018-06-11T13:10:49.457Z,90.10
2018-06-11T13:13:18.689Z,90.60
2018-06-11T13:18:16.644Z,89.40
2018-06-11T13:20:45.941Z,87.20
2018-06-11T13:23:15.166Z,90.20
2018-06-11T13:25:44.414Z,88.10
2018-06-11T13:28:13.908Z,89.30
2018-06-11T13:30:43.248Z,91.50
2018-06-11T13:33:12.552Z,91.60
2018-06-11T13:35:41.869Z,91.90
2018-06-11T13:38:11.180Z,92.90
2018-06-11T13:40:40.552Z,93.70
2018-06-11T13:43:09.850Z,88.20
2018-06-11T13:45:39.101Z,88.00
2018-06-11T13:48:08.355Z,78.40
2018-06-11T13:50:37.653Z,80.20
2018-06-11T13:53:06.980Z,75.60
2018-06-11T13:55:36.253Z,74.60
2018-06-11T13:58:05.573Z,74.60
2018-06-11T14:00:35.328Z,72.90
2018-06-11T14:03:04.647Z,68.20
2018-06-11T14:05:33.902Z,68.80
2018-06-11T14:08:03.215Z,65.30
2018-06-11T14:10:32.614Z,64.40
2018-06-11T14:13:01.965Z,64.30
2018-06-11T14:15:31.273Z,64.00
2018-06-11T14:18:00.540Z,63.70
2018-06-11T14:20:30.011Z,67.40
2018-06-11T14:25:28.023Z,67.30
2018-06-11T14:27:57.283Z,67.60
2018-06-11T14:30:26.734Z,67.90
2018-06-11T14:32:56.050Z,72.00
2018-06-11T14:35:25.300Z,71.10
2018-06-11T14:37:54.627Z,69.30
2018-06-11T14:40:24.054Z,62.10
2018-06-11T14:42:53.393Z,60.90
2018-06-11T14:45:22.696Z,59.90
2018-06-11T14:47:51.998Z,60.00
2018-06-11T14:50:21.365Z,65.20
2018-06-11T14:52:50.691Z,66.20
2018-06-11T14:55:19.974Z,64.60
2018-06-11T14:57:49.356Z,59.60
2018-06-11T15:00:18.768Z,57.50
2018-06-11T15:02:48.164Z,58.00
2018-06-11T15:05:17.568Z,56.90
2018-06-11T15:07:46.905Z,57.80
2018-06-11T15:10:16.245Z,57.30
2018-06-11T15:12:45.652Z,59.60
2018-06-11T15:15:15.045Z,61.30
2018-06-11T15:17:45.441Z,63.00
2018-06-11T15:20:14.894Z,65.60
2018-06-11T15:22:44.290Z,71.30
2018-06-11T15:25:13.569Z,67.00
2018-06-11T15:27:42.970Z,66.60
2018-06-11T15:30:13.968Z,65.20
2018-06-11T15:32:43.293Z,68.70
2018-06-11T15:35:12.818Z,67.70
2018-06-11T15:37:43.153Z,68.70
2018-06-11T15:40:12.524Z,70.90
2018-06-11T15:45:11.261Z,72.40
2018-06-11T15:47:40.726Z,72.50
2018-06-11T15:50:10.289Z,75.10
2018-06-11T15:52:39.550Z,75.60
2018-06-11T15:55:08.952Z,73.20
2018-06-11T15:57:38.247Z,68.40
2018-06-11T16:02:36.577Z,72.80
2018-06-11T16:05:05.837Z,76.10
2018-06-11T16:07:35.196Z,74.30
2018-06-11T16:10:04.644Z,70.60
2018-06-11T16:12:33.950Z,66.40
2018-06-11T16:15:03.237Z,66.80
2018-06-11T16:17:32.532Z,67.60
2018-06-11T16:20:01.889Z,68.10
2018-06-11T16:22:31.179Z,67.80
2018-06-11T16:25:00.449Z,66.10
2018-06-11T16:32:27.187Z,66.30
2018-06-11T16:34:56.689Z,69.60
2018-06-11T16:37:26.000Z,72.30
2018-06-11T16:39:55.257Z,70.20
2018-06-11T16:42:24.635Z,74.30
2018-06-11T16:44:53.896Z,77.40
2018-06-11T16:47:23.182Z,78.90
2018-06-11T16:49:52.456Z,82.60
2018-06-11T16:52:21.826Z,82.70
2018-06-11T16:57:19.795Z,84.50
2018-06-11T16:59:49.043Z,87.20
2018-06-11T17:02:18.396Z,89.00
2018-06-11T17:04:47.924Z,90.40
2018-06-11T17:07:17.213Z,88.80
2018-06-11T17:09:46.516Z,90.00
2018-06-11T17:14:44.581Z,87.30
2018-06-11T17:17:13.863Z,90.70
2018-06-11T17:19:43.192Z,91.30
2018-06-11T17:22:12.657Z,92.20
2018-06-11T17:24:41.918Z,91.20
2018-06-11T17:27:11.172Z,92.00
2018-06-11T17:29:40.377Z,92.30
2018-06-11T17:32:09.672Z,92.00
2018-06-11T17:34:38.955Z,92.70
2018-06-11T17:37:08.221Z,92.70
2018-06-11T17:39:37.499Z,93.20
2018-06-11T17:42:07.068Z,91.60
2018-06-11T17:44:36.556Z,91.80
2018-06-11T17:47:06.229Z,91.50
2018-06-11T17:49:35.539Z,90.20
2018-06-11T17:52:04.915Z,92.10
2018-06-11T17:54:34.343Z,91.00
2018-06-11T17:57:03.654Z,93.30
2018-06-11T17:59:33.005Z,93.00
2018-06-11T18:02:02.353Z,93.30
2018-06-11T18:04:31.680Z,92.30
2018-06-11T18:07:00.956Z,91.50
2018-06-11T18:09:30.356Z,92.00
2018-06-11T18:11:59.728Z,92.30
2018-06-11T18:14:29.107Z,91.90
2018-06-11T18:16:58.473Z,93.30
2018-06-11T18:19:28.015Z,92.00
2018-06-11T18:21:59.368Z,92.10
2018-06-11T18:24:28.684Z,92.50
2018-06-11T18:26:58.080Z,93.30
2018-06-11T18:29:27.372Z,93.60
2018-06-11T18:31:56.689Z,91.40
2018-06-11T18:34:25.976Z,92.10
2018-06-11T18:36:55.417Z,92.40
2018-06-11T18:39:24.696Z,93.10
2018-06-11T18:41:54.010Z,93.90
2018-06-11T18:44:23.277Z,92.00
2018-06-11T18:46:52.586Z,90.30
2018-06-11T18:49:21.900Z,90.80
2018-06-11T18:51:51.273Z,90.30
2018-06-11T18:54:20.624Z,91.70
2018-06-11T18:59:18.700Z,91.70
2018-06-11T19:01:48.134Z,90.90
2018-06-11T19:04:17.425Z,91.70
2018-06-11T19:06:46.706Z,93.00
2018-06-11T19:09:16.060Z,93.40
2018-06-11T19:11:45.441Z,93.60
2018-06-11T19:14:14.769Z,93.50
2018-06-11T19:16:44.069Z,94.80
2018-06-11T19:19:13.380Z,94.80
2018-06-11T19:21:42.777Z,95.60
2018-06-11T19:24:12.686Z,95.60
2018-06-11T19:26:42.015Z,95.30
2018-06-11T19:29:11.289Z,95.40
2018-06-11T19:31:40.772Z,96.50
2018-06-11T19:34:10.169Z,96.70
2018-06-11T19:36:40.169Z,96.60
2018-06-11T19:39:09.441Z,97.50
2018-06-11T19:41:38.741Z,98.00
2018-06-11T19:44:07.984Z,96.80
2018-06-11T19:46:37.249Z,97.50
2018-06-11T19:49:06.519Z,98.10
2018-06-11T19:51:35.810Z,97.70
2018-06-11T19:54:05.109Z,98.40
2018-06-11T19:56:34.741Z,98.30
2018-06-11T19:59:04.026Z,98.80
2018-06-11T20:01:33.358Z,98.90
2018-06-11T20:04:02.862Z,99.40
2018-06-11T20:06:32.132Z,99.30
2018-06-11T20:09:01.385Z,98.80
2018-06-11T20:11:32.880Z,99.30
2018-06-11T20:14:02.200Z,99.30
2018-06-11T20:16:31.504Z,99.90
2018-06-11T20:19:00.751Z,99.90
2018-06-11T20:21:30.081Z,99.50
2018-06-11T20:23:59.309Z,99.90
2018-06-11T20:26:28.605Z,99.90
2018-06-11T20:28:58.113Z,99.90
2018-06-11T20:31:27.418Z,99.90
2018-06-11T20:33:56.655Z,99.90
2018-06-11T20:36:26.020Z,99.90
2018-06-11T20:38:55.289Z,99.90
2018-06-11T20:41:24.723Z,99.90
2018-06-11T20:43:53.956Z,99.90
2018-06-11T20:46:23.181Z,99.90
2018-06-11T20:48:52.394Z,99.90
2018-06-11T20:51:21.676Z,99.90
2018-06-11T20:53:50.954Z,99.90
2018-06-11T20:56:20.221Z,99.90
2018-06-11T20:58:49.489Z,99.90
2018-06-11T21:01:18.960Z,99.90
2018-06-11T21:03:48.188Z,99.90
2018-06-11T21:06:17.414Z,99.90
2018-06-11T21:08:46.688Z,99.90
2018-06-11T21:11:16.370Z,99.90
2018-06-11T21:13:45.731Z,99.90
2018-06-11T21:16:15.058Z,99.90
2018-06-11T21:18:44.295Z,99.90
2018-06-11T21:21:13.517Z,99.90
2018-06-11T21:23:42.816Z,99.90
2018-06-11T21:26:12.065Z,99.90
2018-06-11T21:28:41.300Z,99.90
2018-06-11T21:31:10.593Z,99.90
2018-06-11T21:33:39.837Z,99.90
2018-06-11T21:38:37.782Z,99.90
2018-06-11T21:41:07.212Z,99.90
2018-06-11T21:46:05.240Z,99.90
2018-06-11T21:48:34.469Z,99.90
2018-06-11T21:51:03.776Z,99.90
2018-06-11T21:53:33.000Z,99.90
2018-06-11T21:56:02.289Z,99.90
2018-06-11T21:58:31.600Z,99.90
2018-06-11T22:01:00.988Z,99.90
2018-06-11T22:03:30.286Z,99.90
2018-06-11T22:05:59.843Z,99.90
2018-06-11T22:08:29.080Z,99.90
2018-06-11T22:10:58.437Z,99.90
2018-06-11T22:13:27.680Z,99.90
2018-06-11T22:15:56.943Z,99.90
2018-06-11T22:18:26.244Z,99.90
2018-06-11T22:20:55.602Z,99.90
2018-06-11T22:23:24.845Z,99.90
2018-06-11T22:25:54.101Z,99.90
2018-06-11T22:28:23.339Z,99.90
2018-06-11T22:30:53.694Z,99.90
2018-06-11T22:33:22.897Z,99.90
2018-06-11T22:35:52.137Z,99.90
2018-06-11T22:38:21.541Z,99.90
2018-06-11T22:40:50.868Z,99.90
2018-06-11T22:43:20.123Z,99.90
2018-06-11T22:45:49.425Z,99.90
2018-06-11T22:48:18.668Z,99.90
2018-06-11T22:50:48.002Z,99.90
2018-06-11T22:53:17.228Z,99.90
2018-06-11T22:55:46.464Z,99.90
2018-06-11T22:58:15.662Z,99.90
2018-06-11T23:00:44.976Z,99.90
2018-06-11T23:03:14.196Z,99.90
2018-06-11T23:05:43.461Z,99.90
2018-06-11T23:08:12.697Z,99.90
2018-06-11T23:10:42.376Z,99.90
2018-06-11T23:13:11.606Z,99.90
2018-06-11T23:15:40.876Z,99.90
2018-06-11T23:18:10.204Z,99.90
2018-06-11T23:20:39.496Z,99.90
2018-06-11T23:23:08.783Z,99.90
2018-06-11T23:25:38.031Z,99.90
2018-06-11T23:28:07.279Z,99.90
2018-06-11T23:30:36.600Z,99.90
2018-06-11T23:33:12.187Z,99.90
2018-06-11T23:35:41.448Z,99.90
2018-06-11T23:38:10.648Z,99.90
2018-06-11T23:40:40.006Z,99.90
2018-06-11T23:43:09.557Z,99.90
2018-06-11T23:45:38.797Z,99.90
2018-06-11T23:48:08.053Z,99.90
2018-06-11T23:50:37.460Z,99.90
2018-06-11T23:53:06.687Z,99.90
2018-06-11T23:58:04.640Z,99.90
